Time;durP1;ratioP1;P1;durP2;ratioP2;P2;SDS_P1;SDS_P2;PMS_P1;PMS_P2;Temp;Humidity;BMP_temperature;BMP_pressure;BME280_temperature;BME280_humidity;BME280_pressure;Samples;Min_cycle;Max_cycle;Signal;HPM_P1;HPM_P2
2024/04/03 00:00:04;;;;;;;;;;;10.20;99.90;;;;;;5053937;28;19925;-76
2024/04/03 00:02:30;;;;;;;;;;;10.30;99.90;;;;;;5050990;28;19951;-76
2024/04/03 00:04:55;;;;;;;;;;;10.30;99.90;;;;;;5051532;28;19917;-75
2024/04/03 00:07:30;;;;;;;;;;;10.30;99.90;;;;;;5060209;28;19913;-76
2024/04/03 00:09:59;;;;;;;;;;;10.30;99.90;;;;;;5053077;28;20087;-76
2024/04/03 00:12:25;;;;;;;;;;;10.20;99.90;;;;;;5033431;28;19913;-76
2024/04/03 00:14:51;;;;;;;;;;;10.20;99.90;;;;;;5053336;28;20011;-76
2024/04/03 00:17:17;;;;;;;;;;;10.30;99.90;;;;;;5051681;28;19968;-76
2024/04/03 00:19:43;;;;;;;;;;;10.20;99.90;;;;;;5035746;28;19947;-76
2024/04/03 00:22:08;;;;;;;;;;;10.20;99.90;;;;;;5059944;28;19976;-76
2024/04/03 00:24:34;;;;;;;;;;;10.20;99.90;;;;;;5048814;28;19994;-77
2024/04/03 00:27:01;;;;;;;;;;;10.20;99.90;;;;;;5050316;28;19917;-76
2024/04/03 00:29:27;;;;;;;;;;;10.10;99.90;;;;;;5040864;28;19971;-76
2024/04/03 00:31:56;;;;;;;;;;;10.10;99.90;;;;;;5060233;28;19927;-76
2024/04/03 00:34:22;;;;;;;;;;;10.10;99.90;;;;;;5036742;28;19955;-76
2024/04/03 00:36:48;;;;;;;;;;;10.20;99.90;;;;;;5019857;28;19952;-76
2024/04/03 00:39:14;;;;;;;;;;;10.20;99.90;;;;;;5033997;28;20701;-76
2024/04/03 00:41:42;;;;;;;;;;;10.20;99.90;;;;;;5049952;28;19917;-76
2024/04/03 00:44:08;;;;;;;;;;;10.20;99.90;;;;;;5053353;28;19917;-76
2024/04/03 00:46:34;;;;;;;;;;;10.20;99.90;;;;;;5053278;28;19970;-76
2024/04/03 00:49:00;;;;;;;;;;;10.20;99.90;;;;;;5020153;28;19952;-76
2024/04/03 00:51:27;;;;;;;;;;;10.20;99.90;;;;;;5043406;28;19944;-76
2024/04/03 00:53:53;;;;;;;;;;;10.20;99.90;;;;;;5030259;28;19916;-76
2024/04/03 00:56:18;;;;;;;;;;;10.20;99.90;;;;;;5040575;28;19917;-76
2024/04/03 00:58:44;;;;;;;;;;;10.20;99.90;;;;;;5056805;28;19921;-76
2024/04/03 01:01:10;;;;;;;;;;;10.20;99.90;;;;;;5058933;28;20012;-76
2024/04/03 01:03:36;;;;;;;;;;;10.20;99.90;;;;;;5072422;28;19943;-76
2024/04/03 01:06:02;;;;;;;;;;;10.20;99.90;;;;;;5040998;28;19921;-76
2024/04/03 01:08:28;;;;;;;;;;;10.10;99.90;;;;;;5039451;28;19920;-76
2024/04/03 01:10:54;;;;;;;;;;;10.20;99.90;;;;;;5039849;28;20364;-76
2024/04/03 01:13:20;;;;;;;;;;;10.20;99.90;;;;;;5042647;28;19919;-76
2024/04/03 01:15:45;;;;;;;;;;;10.20;99.90;;;;;;5056348;28;19916;-76
2024/04/03 01:18:11;;;;;;;;;;;10.20;99.90;;;;;;5039457;28;20285;-76
2024/04/03 01:20:38;;;;;;;;;;;10.20;99.90;;;;;;5040081;28;19914;-76
2024/04/03 01:23:04;;;;;;;;;;;10.10;99.90;;;;;;5044042;28;19921;-76
2024/04/03 01:25:30;;;;;;;;;;;10.20;99.90;;;;;;5056836;28;19913;-76
2024/04/03 01:27:55;;;;;;;;;;;10.10;99.90;;;;;;5055904;28;19927;-77
2024/04/03 01:30:21;;;;;;;;;;;10.20;99.90;;;;;;5018868;28;19917;-76
2024/04/03 01:32:47;;;;;;;;;;;10.10;99.90;;;;;;5040940;28;19928;-76
2024/04/03 01:35:13;;;;;;;;;;;10.20;99.90;;;;;;5042936;28;19920;-76
2024/04/03 01:37:38;;;;;;;;;;;10.10;99.90;;;;;;5072769;28;20652;-76
2024/04/03 01:40:04;;;;;;;;;;;10.10;99.90;;;;;;5022455;28;19931;-76
2024/04/03 01:42:30;;;;;;;;;;;10.10;99.90;;;;;;5052537;28;19975;-76
2024/04/03 01:44:56;;;;;;;;;;;10.00;99.90;;;;;;5036875;28;19913;-76
2024/04/03 01:47:22;;;;;;;;;;;10.00;99.90;;;;;;5039959;28;19921;-76
2024/04/03 01:49:52;;;;;;;;;;;10.00;99.90;;;;;;5066472;28;19913;-76
2024/04/03 01:52:17;;;;;;;;;;;10.00;99.90;;;;;;5052446;28;19912;-76
2024/04/03 01:54:43;;;;;;;;;;;10.00;99.90;;;;;;5044398;28;19917;-76
2024/04/03 01:57:09;;;;;;;;;;;10.00;99.90;;;;;;5020193;28;19974;-75
2024/04/03 01:59:35;;;;;;;;;;;9.90;99.90;;;;;;5027697;28;19921;-76
2024/04/03 02:02:00;;;;;;;;;;;10.00;99.90;;;;;;5010891;28;19913;-76
2024/04/03 02:04:26;;;;;;;;;;;10.00;99.90;;;;;;5061552;28;19948;-75
2024/04/03 02:06:54;;;;;;;;;;;10.00;99.90;;;;;;5077016;28;19924;-76
2024/04/03 02:09:20;;;;;;;;;;;10.00;99.90;;;;;;5059058;28;19921;-75
2024/04/03 02:11:45;;;;;;;;;;;9.90;99.90;;;;;;5050717;28;19912;-76
2024/04/03 02:14:12;;;;;;;;;;;9.90;99.90;;;;;;5034521;28;19917;-76
2024/04/03 02:16:48;;;;;;;;;;;9.90;99.90;;;;;;5023422;28;20312;-76
2024/04/03 02:19:13;;;;;;;;;;;9.90;99.90;;;;;;5037865;28;20569;-75
2024/04/03 02:21:39;;;;;;;;;;;9.90;99.90;;;;;;5039872;28;19913;-75
2024/04/03 02:24:05;;;;;;;;;;;9.90;99.90;;;;;;5017202;28;19913;-76
2024/04/03 02:26:30;;;;;;;;;;;9.90;99.90;;;;;;5039941;28;20007;-76
2024/04/03 02:28:56;;;;;;;;;;;9.90;99.90;;;;;;5038883;28;20618;-76
2024/04/03 02:31:23;;;;;;;;;;;9.90;99.90;;;;;;5038530;28;19959;-76
2024/04/03 02:33:49;;;;;;;;;;;9.90;99.90;;;;;;5028823;28;19916;-76
2024/04/03 02:36:15;;;;;;;;;;;10.00;99.90;;;;;;5041351;28;19913;-76
2024/04/03 02:38:41;;;;;;;;;;;9.90;99.90;;;;;;5052522;28;19920;-76
2024/04/03 02:41:07;;;;;;;;;;;10.00;99.90;;;;;;5049849;28;19935;-76
2024/04/03 02:43:32;;;;;;;;;;;10.00;99.90;;;;;;5043068;28;20699;-76
2024/04/03 02:45:58;;;;;;;;;;;9.90;99.90;;;;;;5075158;28;20244;-76
2024/04/03 02:48:24;;;;;;;;;;;10.00;99.90;;;;;;5072037;28;20236;-76
2024/04/03 02:50:50;;;;;;;;;;;10.00;99.90;;;;;;5064303;28;19978;-76
2024/04/03 02:53:16;;;;;;;;;;;10.00;99.90;;;;;;5043280;28;20310;-76
2024/04/03 02:55:42;;;;;;;;;;;10.00;99.90;;;;;;5061890;28;19916;-76
2024/04/03 02:58:08;;;;;;;;;;;10.00;99.90;;;;;;5056538;28;19970;-76
2024/04/03 03:00:33;;;;;;;;;;;10.00;99.90;;;;;;5042189;28;20294;-76
2024/04/03 03:02:59;;;;;;;;;;;10.00;99.90;;;;;;5026731;28;19924;-76
2024/04/03 03:05:25;;;;;;;;;;;10.10;99.90;;;;;;5028635;28;20322;-75
2024/04/03 03:07:50;;;;;;;;;;;10.00;99.90;;;;;;5055168;28;19962;-76
2024/04/03 03:10:16;;;;;;;;;;;10.00;99.90;;;;;;5051356;28;20619;-76
2024/04/03 03:12:45;;;;;;;;;;;9.90;99.90;;;;;;5035286;28;19928;-76
2024/04/03 03:15:10;;;;;;;;;;;9.90;99.90;;;;;;5047002;28;19912;-76
2024/04/03 03:17:36;;;;;;;;;;;10.00;99.90;;;;;;5063340;28;19932;-76
2024/04/03 03:20:02;;;;;;;;;;;10.00;99.90;;;;;;5051262;28;20257;-76
2024/04/03 03:22:28;;;;;;;;;;;10.00;99.90;;;;;;5055973;28;19940;-76
2024/04/03 03:24:54;;;;;;;;;;;10.00;99.90;;;;;;5060614;28;19913;-76
2024/04/03 03:27:20;;;;;;;;;;;10.00;99.90;;;;;;5051257;28;19921;-75
2024/04/03 03:29:46;;;;;;;;;;;10.00;99.90;;;;;;5034074;28;19948;-76
2024/04/03 03:32:12;;;;;;;;;;;10.00;99.90;;;;;;5039794;28;19920;-76
2024/04/03 03:34:38;;;;;;;;;;;10.10;99.90;;;;;;5040301;28;20410;-76
2024/04/03 03:37:04;;;;;;;;;;;10.00;99.90;;;;;;5051576;28;19932;-76
2024/04/03 03:39:30;;;;;;;;;;;10.10;99.90;;;;;;5018885;28;20020;-76
2024/04/03 03:41:56;;;;;;;;;;;10.10;99.90;;;;;;5043114;28;20677;-76
2024/04/03 03:44:23;;;;;;;;;;;10.10;99.90;;;;;;5054466;28;19913;-76
2024/04/03 03:46:50;;;;;;;;;;;10.10;99.90;;;;;;5037254;28;19979;-76
2024/04/03 03:54:46;;;;;;;;;;;10.00;99.90;;;;;;5053529;28;19916;-77
2024/04/03 03:57:11;;;;;;;;;;;10.00;99.90;;;;;;5051606;28;19921;-76
2024/04/03 03:59:37;;;;;;;;;;;10.00;99.90;;;;;;5085594;28;20387;-76
2024/04/03 04:02:03;;;;;;;;;;;10.00;99.90;;;;;;5051030;28;19921;-76
2024/04/03 04:04:29;;;;;;;;;;;10.00;99.90;;;;;;5017194;28;19927;-76
2024/04/03 04:06:54;;;;;;;;;;;10.00;99.90;;;;;;5053484;28;19916;-76
2024/04/03 04:09:20;;;;;;;;;;;10.00;99.90;;;;;;5021481;28;20218;-76
2024/04/03 04:11:46;;;;;;;;;;;10.00;99.90;;;;;;5054315;28;20274;-76
2024/04/03 04:14:12;;;;;;;;;;;10.00;99.90;;;;;;5054071;28;19923;-76
2024/04/03 04:16:37;;;;;;;;;;;10.00;99.90;;;;;;5065913;28;19913;-76
2024/04/03 04:19:03;;;;;;;;;;;10.00;99.90;;;;;;5053474;28;20333;-76
2024/04/03 04:21:29;;;;;;;;;;;10.00;99.90;;;;;;5041151;28;19929;-76
2024/04/03 04:23:55;;;;;;;;;;;10.00;99.90;;;;;;5033165;28;19913;-76
2024/04/03 04:26:20;;;;;;;;;;;10.00;99.90;;;;;;5033695;28;20317;-75
2024/04/03 04:28:46;;;;;;;;;;;10.00;99.90;;;;;;5059292;28;19912;-76
2024/04/03 04:31:15;;;;;;;;;;;10.00;99.90;;;;;;5054501;28;19921;-77
2024/04/03 04:33:41;;;;;;;;;;;10.00;99.90;;;;;;5057017;28;19917;-76
2024/04/03 04:36:07;;;;;;;;;;;10.00;99.90;;;;;;5058074;28;19924;-76
2024/04/03 04:38:33;;;;;;;;;;;10.00;99.90;;;;;;5054626;28;19917;-76
2024/04/03 04:41:02;;;;;;;;;;;9.90;99.90;;;;;;5074015;28;20249;-76
2024/04/03 04:43:28;;;;;;;;;;;9.90;99.90;;;;;;5050286;28;20395;-76
2024/04/03 04:45:57;;;;;;;;;;;9.90;99.90;;;;;;5037477;28;19917;-76
2024/04/03 04:48:24;;;;;;;;;;;9.90;99.90;;;;;;5048120;28;19974;-76
2024/04/03 04:50:51;;;;;;;;;;;9.80;99.90;;;;;;5044219;28;19913;-77
2024/04/03 04:53:16;;;;;;;;;;;9.80;99.90;;;;;;5057577;28;20031;-76
2024/04/03 04:55:50;;;;;;;;;;;9.80;99.90;;;;;;5028771;28;19979;-76
2024/04/03 04:58:16;;;;;;;;;;;9.80;99.90;;;;;;5038373;28;19921;-76
2024/04/03 05:00:41;;;;;;;;;;;9.80;99.90;;;;;;5036467;28;19921;-78
2024/04/03 05:03:07;;;;;;;;;;;9.80;99.90;;;;;;5055107;28;20011;-77
2024/04/03 05:05:33;;;;;;;;;;;9.70;99.90;;;;;;5053762;28;20387;-77
2024/04/03 05:07:59;;;;;;;;;;;9.80;99.90;;;;;;5029950;28;19968;-76
2024/04/03 05:10:25;;;;;;;;;;;9.80;99.90;;;;;;5054919;28;19912;-77
2024/04/03 05:12:51;;;;;;;;;;;9.80;99.90;;;;;;5056661;28;20022;-77
2024/04/03 05:15:17;;;;;;;;;;;9.80;99.90;;;;;;5038924;28;19956;-77
2024/04/03 05:17:43;;;;;;;;;;;9.80;99.90;;;;;;5057015;28;20438;-78
2024/04/03 05:20:08;;;;;;;;;;;9.80;99.90;;;;;;5038930;28;19913;-77
2024/04/03 05:22:34;;;;;;;;;;;9.90;99.90;;;;;;5045679;28;20541;-76
2024/04/03 05:25:00;;;;;;;;;;;9.90;99.90;;;;;;5044775;28;19995;-78
2024/04/03 05:27:25;;;;;;;;;;;9.80;99.90;;;;;;5059126;28;20248;-77
2024/04/03 05:29:51;;;;;;;;;;;9.80;99.90;;;;;;5051293;28;20286;-77
2024/04/03 05:32:16;;;;;;;;;;;9.90;99.90;;;;;;5024175;28;19927;-76
2024/04/03 05:34:42;;;;;;;;;;;9.90;99.90;;;;;;5036646;28;19932;-76
2024/04/03 05:37:08;;;;;;;;;;;10.00;99.90;;;;;;5069924;28;19921;-76
2024/04/03 05:39:36;;;;;;;;;;;9.90;99.90;;;;;;5053842;28;20317;-76
2024/04/03 05:42:02;;;;;;;;;;;9.90;99.90;;;;;;5068347;28;20000;-75
2024/04/03 05:44:31;;;;;;;;;;;9.90;99.90;;;;;;5042419;28;20286;-79
2024/04/03 05:46:57;;;;;;;;;;;9.90;99.90;;;;;;5036721;28;19948;-77
2024/04/03 05:49:22;;;;;;;;;;;9.90;99.90;;;;;;5030878;28;20245;-78
2024/04/03 05:51:48;;;;;;;;;;;9.90;99.90;;;;;;5054046;28;19939;-78
2024/04/03 05:54:16;;;;;;;;;;;9.90;99.90;;;;;;5075876;28;20268;-79
2024/04/03 05:56:42;;;;;;;;;;;9.90;99.90;;;;;;5063617;28;19917;-79
2024/04/03 05:59:08;;;;;;;;;;;9.90;99.90;;;;;;5072893;28;19927;-79
2024/04/03 06:01:34;;;;;;;;;;;10.00;99.90;;;;;;5060968;28;19952;-77
2024/04/03 06:03:59;;;;;;;;;;;10.00;99.90;;;;;;5051115;28;20038;-77
2024/04/03 06:06:28;;;;;;;;;;;10.00;99.90;;;;;;5058310;28;19912;-79
2024/04/03 06:08:57;;;;;;;;;;;10.00;99.90;;;;;;5058434;28;19916;-79
2024/04/03 06:11:22;;;;;;;;;;;10.00;99.90;;;;;;5022283;28;20270;-79
2024/04/03 06:13:48;;;;;;;;;;;10.00;99.90;;;;;;5046538;28;19912;-78
2024/04/03 06:16:14;;;;;;;;;;;10.00;99.90;;;;;;5058962;28;19917;-79
2024/04/03 06:18:40;;;;;;;;;;;10.10;99.90;;;;;;5039542;28;19970;-79
2024/04/03 06:21:18;;;;;;;;;;;10.10;99.90;;;;;;5055700;28;20011;-79
2024/04/03 06:23:43;;;;;;;;;;;10.10;99.90;;;;;;5039072;28;20296;-79
2024/04/03 06:26:10;;;;;;;;;;;10.10;99.90;;;;;;5082439;28;19918;-79
2024/04/03 06:28:37;;;;;;;;;;;10.10;99.90;;;;;;5058504;28;19919;-79
2024/04/03 06:31:03;;;;;;;;;;;10.10;99.90;;;;;;5049878;28;19916;-79
2024/04/03 06:33:28;;;;;;;;;;;10.10;99.90;;;;;;5039328;28;19913;-78
2024/04/03 06:35:54;;;;;;;;;;;10.10;99.90;;;;;;5065388;28;19962;-79
2024/04/03 06:38:19;;;;;;;;;;;10.10;99.90;;;;;;5045036;28;19959;-79
2024/04/03 06:40:45;;;;;;;;;;;10.10;99.90;;;;;;5065899;28;20226;-79
2024/04/03 06:43:11;;;;;;;;;;;10.10;99.90;;;;;;5058755;28;19919;-79
2024/04/03 06:45:36;;;;;;;;;;;10.10;99.90;;;;;;5076468;28;19939;-79
2024/04/03 06:48:03;;;;;;;;;;;10.10;99.90;;;;;;5042370;28;20221;-79
2024/04/03 06:50:28;;;;;;;;;;;10.10;99.90;;;;;;5058452;28;19969;-79
2024/04/03 06:52:54;;;;;;;;;;;10.10;99.90;;;;;;5074642;28;20003;-78
2024/04/03 06:55:20;;;;;;;;;;;10.10;99.90;;;;;;5040704;28;19924;-79
2024/04/03 06:57:45;;;;;;;;;;;10.10;99.90;;;;;;5066762;28;19916;-79
2024/04/03 07:00:11;;;;;;;;;;;10.10;99.90;;;;;;5044745;28;19936;-79
2024/04/03 07:02:37;;;;;;;;;;;10.10;99.90;;;;;;5080407;28;19973;-79
2024/04/03 07:05:03;;;;;;;;;;;10.10;99.90;;;;;;5045993;28;20508;-79
2024/04/03 07:07:29;;;;;;;;;;;10.00;99.90;;;;;;5039166;28;19913;-79
2024/04/03 07:09:58;;;;;;;;;;;10.10;99.90;;;;;;5033408;28;19927;-79
2024/04/03 07:12:24;;;;;;;;;;;10.10;99.90;;;;;;5063493;28;19960;-80
2024/04/03 07:14:49;;;;;;;;;;;10.10;99.90;;;;;;5078626;28;19969;-79
2024/04/03 07:17:15;;;;;;;;;;;10.10;99.90;;;;;;5041597;28;20325;-79
2024/04/03 07:19:41;;;;;;;;;;;10.10;99.90;;;;;;5071981;28;20721;-79
2024/04/03 07:22:07;;;;;;;;;;;10.10;99.90;;;;;;5055202;28;19917;-79
2024/04/03 07:24:33;;;;;;;;;;;10.10;99.90;;;;;;5064421;28;19981;-81
2024/04/03 07:26:58;;;;;;;;;;;10.10;99.90;;;;;;5052870;28;20370;-79
2024/04/03 07:29:24;;;;;;;;;;;10.20;99.90;;;;;;5066604;28;20645;-79
2024/04/03 07:34:25;;;;;;;;;;;10.20;99.90;;;;;;5069878;22;19943;-75
2024/04/03 07:36:52;;;;;;;;;;;10.20;99.90;;;;;;5056740;28;19920;-77
2024/04/03 07:39:18;;;;;;;;;;;10.30;99.90;;;;;;5055814;28;19913;-77
2024/04/03 07:41:43;;;;;;;;;;;10.20;99.90;;;;;;5040716;28;19999;-77
2024/04/03 07:44:14;;;;;;;;;;;10.20;99.90;;;;;;5056442;28;20312;-77
2024/04/03 07:46:40;;;;;;;;;;;10.20;99.90;;;;;;5056290;28;20307;-77
2024/04/03 07:49:06;;;;;;;;;;;10.10;99.90;;;;;;5071829;28;20356;-74
2024/04/03 07:51:32;;;;;;;;;;;10.10;99.90;;;;;;5052932;28;19917;-75
2024/04/03 07:53:57;;;;;;;;;;;10.10;99.90;;;;;;5039837;28;19916;-75
2024/04/03 07:56:23;;;;;;;;;;;10.20;99.90;;;;;;5056038;28;19952;-75
2024/04/03 07:58:49;;;;;;;;;;;10.20;99.90;;;;;;5039528;28;20655;-75
2024/04/03 08:01:15;;;;;;;;;;;10.20;99.90;;;;;;5056499;28;19913;-75
2024/04/03 08:03:40;;;;;;;;;;;10.20;99.90;;;;;;5056602;28;19912;-75
2024/04/03 08:06:06;;;;;;;;;;;10.20;99.90;;;;;;5057051;28;19916;-75
2024/04/03 08:08:32;;;;;;;;;;;10.30;99.90;;;;;;5074102;28;19916;-75
2024/04/03 08:11:01;;;;;;;;;;;10.30;99.90;;;;;;5059551;28;19913;-75
2024/04/03 08:13:27;;;;;;;;;;;10.30;99.90;;;;;;5039455;28;19919;-75
2024/04/03 08:16:06;;;;;;;;;;;10.30;99.90;;;;;;5056504;28;19999;-75
2024/04/03 08:18:32;;;;;;;;;;;10.30;99.90;;;;;;5024636;28;19928;-75
2024/04/03 08:21:01;;;;;;;;;;;10.30;99.90;;;;;;5074554;28;20300;-76
2024/04/03 08:23:27;;;;;;;;;;;10.40;99.90;;;;;;5057443;28;20359;-75
2024/04/03 08:25:52;;;;;;;;;;;10.40;99.90;;;;;;5057259;28;20004;-76
2024/04/03 08:28:18;;;;;;;;;;;10.40;99.90;;;;;;5072424;28;19923;-76
2024/04/03 08:30:43;;;;;;;;;;;10.40;99.90;;;;;;5040878;28;20003;-77
2024/04/03 08:33:10;;;;;;;;;;;10.50;99.90;;;;;;5053192;28;19954;-78
2024/04/03 08:35:36;;;;;;;;;;;10.50;99.90;;;;;;5057062;28;19920;-77
2024/04/03 08:38:01;;;;;;;;;;;10.60;99.90;;;;;;5056754;28;19974;-78
2024/04/03 08:40:28;;;;;;;;;;;10.60;99.90;;;;;;5047674;28;20359;-77
2024/04/03 08:42:53;;;;;;;;;;;10.70;99.90;;;;;;5056861;28;19913;-76
2024/04/03 08:45:20;;;;;;;;;;;10.70;99.90;;;;;;5055812;28;19927;-77
2024/04/03 08:47:46;;;;;;;;;;;10.70;99.90;;;;;;5073122;28;19955;-75
2024/04/03 08:50:11;;;;;;;;;;;10.80;99.90;;;;;;5036129;28;19956;-75
2024/04/03 08:52:37;;;;;;;;;;;10.80;99.90;;;;;;5034235;28;19924;-75
2024/04/03 08:55:03;;;;;;;;;;;10.90;99.90;;;;;;5036501;28;19912;-76
2024/04/03 08:57:28;;;;;;;;;;;10.90;99.90;;;;;;5035155;28;19965;-77
2024/04/03 08:59:54;;;;;;;;;;;11.00;99.90;;;;;;5073509;28;19912;-77
2024/04/03 09:02:19;;;;;;;;;;;11.00;99.90;;;;;;5068597;28;19982;-77
2024/04/03 09:04:45;;;;;;;;;;;11.10;99.90;;;;;;5053963;28;19928;-77
2024/04/03 09:07:18;;;;;;;;;;;11.20;99.90;;;;;;5037520;28;19939;-77
2024/04/03 09:09:44;;;;;;;;;;;11.30;99.90;;;;;;5040348;28;19913;-77
2024/04/03 09:12:09;;;;;;;;;;;11.30;99.90;;;;;;5073926;28;19913;-78
2024/04/03 09:14:35;;;;;;;;;;;11.30;99.90;;;;;;5064733;28;19916;-75
2024/04/03 09:17:01;;;;;;;;;;;11.40;99.90;;;;;;5045302;28;19947;-77
2024/04/03 09:19:27;;;;;;;;;;;11.40;99.90;;;;;;5044498;28;19917;-77
2024/04/03 09:21:53;;;;;;;;;;;11.40;99.90;;;;;;5060799;28;19939;-77
2024/04/03 09:24:19;;;;;;;;;;;11.50;99.90;;;;;;5060960;28;19912;-79
2024/04/03 09:26:52;;;;;;;;;;;11.60;99.90;;;;;;5026835;28;19916;-79
2024/04/03 09:29:18;;;;;;;;;;;11.60;99.90;;;;;;5065491;28;20323;-79
2024/04/03 09:31:44;;;;;;;;;;;11.70;99.90;;;;;;5067860;28;19935;-78
2024/04/03 09:34:09;;;;;;;;;;;11.80;99.90;;;;;;5056486;28;19935;-77
2024/04/03 09:36:35;;;;;;;;;;;11.90;99.90;;;;;;5048513;28;19921;-78
2024/04/03 09:39:02;;;;;;;;;;;11.90;99.90;;;;;;5035766;28;19932;-78
2024/04/03 09:41:31;;;;;;;;;;;11.90;99.90;;;;;;5075294;28;19913;-77
2024/04/03 09:44:03;;;;;;;;;;;11.90;99.90;;;;;;5057821;28;20039;-76
2024/04/03 09:46:51;;;;;;;;;;;11.90;99.90;;;;;;5077539;28;20320;-77
2024/04/03 09:49:18;;;;;;;;;;;11.90;99.90;;;;;;5058388;28;19923;-77
2024/04/03 09:51:44;;;;;;;;;;;12.00;99.90;;;;;;5040509;28;20599;-76
2024/04/03 09:54:10;;;;;;;;;;;12.10;99.90;;;;;;5043676;28;19923;-77
2024/04/03 09:56:37;;;;;;;;;;;12.20;99.90;;;;;;5060238;28;19916;-79
2024/04/03 09:59:02;;;;;;;;;;;12.20;99.90;;;;;;5060213;28;19927;-78
2024/04/03 10:01:30;;;;;;;;;;;12.10;99.90;;;;;;5060205;28;19912;-77
2024/04/03 10:04:03;;;;;;;;;;;12.10;99.90;;;;;;5067526;28;19916;-77
2024/04/03 10:06:34;;;;;;;;;;;12.10;99.90;;;;;;5074737;28;20394;-76
2024/04/03 10:08:59;;;;;;;;;;;12.00;99.90;;;;;;5076069;28;20317;-77
2024/04/03 10:11:25;;;;;;;;;;;12.00;99.90;;;;;;5059700;28;19917;-77
2024/04/03 10:13:52;;;;;;;;;;;12.00;99.90;;;;;;5076005;28;20352;-76
2024/04/03 10:16:18;;;;;;;;;;;11.80;99.90;;;;;;5059386;28;19966;-78
2024/04/03 10:18:53;;;;;;;;;;;11.80;99.90;;;;;;5080778;28;19921;-76
2024/04/03 10:21:21;;;;;;;;;;;11.80;99.90;;;;;;5058090;28;19978;-77
2024/04/03 10:23:49;;;;;;;;;;;11.90;99.90;;;;;;5058334;28;19923;-77
2024/04/03 10:26:15;;;;;;;;;;;11.80;99.90;;;;;;5057429;28;19916;-76
2024/04/03 10:28:41;;;;;;;;;;;11.80;99.90;;;;;;5074055;28;19916;-76
2024/04/03 10:31:07;;;;;;;;;;;11.80;99.90;;;;;;5075655;28;19939;-76
2024/04/03 10:33:32;;;;;;;;;;;11.80;99.90;;;;;;5051314;28;20007;-77
2024/04/03 10:35:58;;;;;;;;;;;11.80;99.90;;;;;;5041917;28;19912;-76
2024/04/03 10:38:24;;;;;;;;;;;11.80;99.90;;;;;;5041822;28;20388;-76
2024/04/03 10:40:52;;;;;;;;;;;11.80;99.90;;;;;;5042244;28;19999;-76
2024/04/03 10:43:18;;;;;;;;;;;11.70;99.90;;;;;;5059350;28;19924;-76
2024/04/03 10:45:49;;;;;;;;;;;11.70;99.90;;;;;;5038800;28;20341;-76
2024/04/03 10:48:16;;;;;;;;;;;11.70;99.90;;;;;;5052579;28;20347;-75
2024/04/03 10:50:42;;;;;;;;;;;11.70;99.90;;;;;;5075567;28;19990;-77
2024/04/03 10:53:09;;;;;;;;;;;11.80;99.90;;;;;;5059376;28;20008;-77
2024/04/03 10:55:36;;;;;;;;;;;11.90;99.90;;;;;;5070272;28;19913;-77
2024/04/03 10:58:02;;;;;;;;;;;12.00;99.90;;;;;;5046039;28;20356;-76
2024/04/03 11:00:34;;;;;;;;;;;12.00;99.90;;;;;;5035053;28;20252;-77
2024/04/03 11:03:07;;;;;;;;;;;12.10;99.90;;;;;;5057970;28;19916;-77
2024/04/03 11:05:32;;;;;;;;;;;12.10;99.90;;;;;;5041628;28;19916;-77
2024/04/03 11:07:58;;;;;;;;;;;12.20;99.90;;;;;;5047552;28;19912;-78
2024/04/03 11:10:24;;;;;;;;;;;12.20;99.90;;;;;;5043285;28;19913;-79
2024/04/03 11:12:50;;;;;;;;;;;12.20;99.90;;;;;;5054002;28;19912;-78
2024/04/03 11:15:22;;;;;;;;;;;12.20;99.90;;;;;;5050364;28;20002;-78
2024/04/03 11:17:48;;;;;;;;;;;12.20;99.90;;;;;;5036350;28;20079;-78
2024/04/03 11:20:16;;;;;;;;;;;12.20;99.90;;;;;;5053719;28;20011;-76
2024/04/03 11:22:42;;;;;;;;;;;12.10;99.90;;;;;;5057367;28;19923;-78
2024/04/03 11:25:12;;;;;;;;;;;12.10;99.90;;;;;;5040866;28;19917;-78
2024/04/03 11:27:39;;;;;;;;;;;12.10;99.90;;;;;;5074241;28;20236;-76
2024/04/03 11:30:05;;;;;;;;;;;12.10;99.90;;;;;;5037507;28;19917;-77
2024/04/03 11:32:30;;;;;;;;;;;12.20;99.90;;;;;;5048442;28;19917;-77
2024/04/03 11:34:56;;;;;;;;;;;12.20;99.90;;;;;;5041009;28;19924;-78
2024/04/03 11:37:25;;;;;;;;;;;12.20;99.90;;;;;;5066550;28;19924;-77
2024/04/03 11:39:54;;;;;;;;;;;12.20;99.90;;;;;;5051102;28;19916;-77
2024/04/03 11:42:49;;;;;;;;;;;12.20;99.90;;;;;;5052128;28;19920;-78
2024/04/03 11:45:15;;;;;;;;;;;12.30;99.90;;;;;;5056956;28;20030;-77
2024/04/03 11:47:40;;;;;;;;;;;12.20;99.90;;;;;;5057163;28;19916;-76
2024/04/03 11:50:09;;;;;;;;;;;12.20;99.90;;;;;;5040094;28;19919;-79
2024/04/03 11:52:35;;;;;;;;;;;12.10;99.90;;;;;;5060218;28;19923;-77
2024/04/03 11:55:01;;;;;;;;;;;12.20;99.90;;;;;;5056914;28;19955;-79
2024/04/03 11:57:27;;;;;;;;;;;12.20;99.90;;;;;;5037301;28;19956;-78
2024/04/03 11:59:55;;;;;;;;;;;12.20;99.90;;;;;;5073247;28;19923;-78
2024/04/03 12:02:21;;;;;;;;;;;12.20;99.90;;;;;;5056442;28;19912;-78
2024/04/03 12:04:49;;;;;;;;;;;12.30;99.90;;;;;;5052743;28;19916;-78
2024/04/03 12:07:19;;;;;;;;;;;12.30;99.90;;;;;;5041806;28;20231;-79
2024/04/03 12:09:45;;;;;;;;;;;12.30;99.90;;;;;;5075850;28;19917;-77
2024/04/03 12:12:15;;;;;;;;;;;12.30;99.90;;;;;;5036311;28;19974;-78
2024/04/03 12:14:43;;;;;;;;;;;12.30;99.90;;;;;;5020436;28;19960;-79
2024/04/03 12:17:09;;;;;;;;;;;12.20;99.90;;;;;;5030341;28;19912;-78
2024/04/03 12:19:44;;;;;;;;;;;12.20;99.90;;;;;;5043648;28;19913;-77
2024/04/03 12:22:28;;;;;;;;;;;12.20;99.90;;;;;;5060323;28;19935;-78
2024/04/03 12:24:59;;;;;;;;;;;12.20;99.90;;;;;;5048146;28;19912;-78
2024/04/03 12:27:31;;;;;;;;;;;12.20;99.90;;;;;;5048818;28;20282;-75
2024/04/03 12:29:57;;;;;;;;;;;12.20;99.90;;;;;;5039783;28;19956;-78
2024/04/03 12:32:24;;;;;;;;;;;12.20;99.90;;;;;;5036694;28;19950;-79
2024/04/03 12:34:53;;;;;;;;;;;12.30;99.90;;;;;;5019088;28;19979;-79
2024/04/03 12:37:18;;;;;;;;;;;12.30;99.90;;;;;;5072904;28;20283;-77
2024/04/03 12:39:44;;;;;;;;;;;12.30;99.90;;;;;;5054528;28;19913;-77
2024/04/03 12:42:13;;;;;;;;;;;12.30;99.90;;;;;;5056855;28;19920;-76
2024/04/03 12:44:38;;;;;;;;;;;12.40;99.90;;;;;;5058782;28;19923;-78
2024/04/03 12:47:07;;;;;;;;;;;12.40;99.90;;;;;;5073444;28;19920;-78
2024/04/03 12:49:32;;;;;;;;;;;12.50;99.90;;;;;;5059000;28;19913;-78
2024/04/03 12:52:01;;;;;;;;;;;12.50;99.90;;;;;;5040608;28;19967;-78
2024/04/03 12:54:28;;;;;;;;;;;12.50;99.90;;;;;;5056533;28;19919;-76
2024/04/03 12:56:57;;;;;;;;;;;12.50;99.90;;;;;;5061030;28;20003;-76
2024/04/03 12:59:25;;;;;;;;;;;12.50;99.90;;;;;;5060967;28;19916;-76
2024/04/03 13:01:52;;;;;;;;;;;12.50;99.90;;;;;;5057941;28;19916;-76
2024/04/03 13:04:18;;;;;;;;;;;12.50;99.90;;;;;;5065747;28;19912;-77
2024/04/03 13:06:44;;;;;;;;;;;12.50;99.90;;;;;;5070654;28;19919;-76
2024/04/03 13:09:13;;;;;;;;;;;12.50;99.90;;;;;;5059667;28;19999;-77
2024/04/03 13:11:42;;;;;;;;;;;12.50;99.90;;;;;;5033285;28;19935;-77
2024/04/03 13:14:08;;;;;;;;;;;12.50;99.90;;;;;;5045012;28;19912;-77
2024/04/03 13:16:34;;;;;;;;;;;12.50;99.90;;;;;;5061211;28;20007;-77
2024/04/03 13:18:59;;;;;;;;;;;12.60;99.90;;;;;;5044006;28;19943;-76
2024/04/03 13:21:25;;;;;;;;;;;12.50;99.90;;;;;;5050197;28;19928;-77
2024/04/03 13:23:51;;;;;;;;;;;12.50;99.90;;;;;;5008345;28;19928;-77
2024/04/03 13:26:17;;;;;;;;;;;12.50;99.90;;;;;;5069279;28;19982;-77
2024/04/03 13:28:43;;;;;;;;;;;12.50;99.90;;;;;;5060293;28;19916;-77
2024/04/03 13:31:08;;;;;;;;;;;12.50;99.90;;;;;;5059909;28;19920;-77
2024/04/03 13:33:34;;;;;;;;;;;12.50;99.90;;;;;;5076741;28;19982;-78
2024/04/03 13:36:00;;;;;;;;;;;12.50;99.90;;;;;;5041425;28;19924;-78
2024/04/03 13:38:26;;;;;;;;;;;12.50;99.90;;;;;;5043745;28;19938;-77
2024/04/03 13:40:51;;;;;;;;;;;12.40;99.90;;;;;;5043575;28;19978;-77
2024/04/03 13:43:17;;;;;;;;;;;12.40;99.90;;;;;;5086484;28;19916;-77
2024/04/03 13:45:44;;;;;;;;;;;12.40;99.90;;;;;;5070348;28;20011;-76
2024/04/03 13:48:10;;;;;;;;;;;12.40;99.90;;;;;;5017938;28;19952;-76
2024/04/03 13:50:35;;;;;;;;;;;12.40;99.90;;;;;;5056429;28;19967;-76
2024/04/03 13:53:01;;;;;;;;;;;12.40;99.90;;;;;;5040825;28;19966;-77
2024/04/03 13:55:27;;;;;;;;;;;12.40;99.90;;;;;;5056647;28;19927;-78
2024/04/03 13:57:52;;;;;;;;;;;12.40;99.90;;;;;;5059486;28;21007;-77
2024/04/03 14:00:24;;;;;;;;;;;12.40;99.90;;;;;;5059232;28;19916;-77
2024/04/03 14:02:50;;;;;;;;;;;12.40;99.90;;;;;;5053409;28;19913;-78
2024/04/03 14:05:16;;;;;;;;;;;12.40;99.90;;;;;;5056078;28;19912;-77
2024/04/03 14:07:42;;;;;;;;;;;12.40;99.90;;;;;;5064926;28;19917;-77
2024/04/03 14:10:07;;;;;;;;;;;12.30;99.90;;;;;;5074599;28;20298;-77
2024/04/03 14:12:35;;;;;;;;;;;12.30;99.90;;;;;;5070117;28;20670;-77
2024/04/03 14:15:00;;;;;;;;;;;12.30;99.90;;;;;;5021428;28;20613;-76
2024/04/03 14:17:26;;;;;;;;;;;12.30;99.90;;;;;;5053094;28;19917;-76
2024/04/03 14:19:52;;;;;;;;;;;12.20;99.90;;;;;;5074647;28;19917;-77
2024/04/03 14:22:18;;;;;;;;;;;12.20;99.90;;;;;;5060970;28;19939;-77